CPH weather

Copenhagen Kastrup Airport
Copenhagen, Capital Region, Denmark

Public forecast

Using degrees Celsius for public forecast. Weather courtesy of forecast.io.

Current aviation weather report (METAR) for Copenhagen Kastrup Airport

Retrieved 2020/01/26 20:20 UTC (0 seconds ago):

EKCH 262020Z AUTO 19012KT 9999 FEW007/// OVC091/// 04/03 Q1013 NOSIG

Aviation forecast (TAF) for Copenhagen Kastrup Airport

Retrieved 2020/01/26 18:06 UTC (2 hours ago):

TAF EKCH 261703Z 2618/2718 21010KT 7000 SCT008 TEMPO 2618/2621 4000 BR BECMG 2621/2623 BKN006 TEMPO 2623/2707 4000 BR BKN004 TEMPO 2707/2712 19018G28KT SCT006 TEMPO 2712/2716 3000 BR BKN004 BECMG 2716/2718 BKN020